Time;durP1;ratioP1;P1;durP2;ratioP2;P2;SDS_P1;SDS_P2;PMS_P1;PMS_P2;Temp;Humidity;BMP_temperature;BMP_pressure;BME280_temperature;BME280_humidity;BME280_pressure;Samples;Min_cycle;Max_cycle;Signal;HPM_P1;HPM_P2
2021/05/07 00:01:29;;;;;;;77.82;13.75;;;4.40;99.90;;;;;;6096796;23;20120;-87
2021/05/07 00:03:55;;;;;;;10.82;4.93;;;4.40;99.90;;;;;;6122765;23;20010;-88
2021/05/07 00:06:21;;;;;;;11.07;4.65;;;4.40;99.90;;;;;;6096639;23;20022;-88
2021/05/07 00:08:47;;;;;;;14.82;5.93;;;4.40;99.90;;;;;;6173393;23;20052;-88
2021/05/07 00:11:15;;;;;;;10.60;4.65;;;4.50;99.90;;;;;;6122511;23;20021;-88
2021/05/07 00:13:43;;;;;;;6.60;4.43;;;4.50;99.90;;;;;;6124797;23;20026;-88
2021/05/07 00:16:09;;;;;;;6.38;3.85;;;4.50;99.90;;;;;;6148314;23;20025;-87
2021/05/07 00:18:37;;;;;;;9.13;3.42;;;4.50;99.90;;;;;;6099339;23;20442;-88
2021/05/07 00:21:04;;;;;;;10.40;4.53;;;4.50;99.90;;;;;;6122572;23;20018;-87
2021/05/07 00:23:30;;;;;;;18.85;6.20;;;4.50;99.90;;;;;;6099643;23;20109;-88
2021/05/07 00:25:56;;;;;;;17.90;6.00;;;4.50;99.90;;;;;;6099382;23;20037;-88
2021/05/07 00:28:22;;;;;;;14.40;5.70;;;4.50;99.90;;;;;;6124818;23;20018;-87
2021/05/07 00:30:48;;;;;;;9.70;4.03;;;4.50;99.90;;;;;;6098512;23;20452;-87
2021/05/07 00:33:14;;;;;;;12.40;5.45;;;4.40;99.90;;;;;;6125303;23;20022;-88
2021/05/07 00:35:40;;;;;;;10.65;4.50;;;4.40;99.90;;;;;;6123440;23;20018;-87
2021/05/07 00:38:06;;;;;;;11.65;5.15;;;4.40;99.90;;;;;;6099025;23;20344;-87
2021/05/07 00:40:33;;;;;;;13.15;5.10;;;4.40;99.90;;;;;;6099688;23;20025;-87
2021/05/07 00:42:59;;;;;;;10.75;4.75;;;4.30;99.90;;;;;;6099211;23;20014;-88
2021/05/07 00:45:26;;;;;;;19.95;7.28;;;4.30;99.90;;;;;;6098636;23;20034;-88
2021/05/07 00:48:00;;;;;;;12.38;5.82;;;4.20;99.90;;;;;;6147685;23;20101;-87
2021/05/07 00:50:29;;;;;;;7.57;4.28;;;4.30;99.90;;;;;;6098110;23;20355;-88
2021/05/07 00:52:58;;;;;;;7.20;3.88;;;4.30;99.90;;;;;;6099051;23;20028;-88
2021/05/07 00:55:24;;;;;;;9.13;4.65;;;4.10;99.90;;;;;;6123023;23;20029;-88
2021/05/07 00:57:50;;;;;;;9.07;4.53;;;4.10;99.90;;;;;;6117059;23;20696;-88
2021/05/07 01:00:17;;;;;;;14.45;4.45;;;4.10;99.90;;;;;;6147193;23;20459;-87
2021/05/07 01:02:43;;;;;;;8.45;4.13;;;4.10;99.90;;;;;;6099300;23;20014;-88
2021/05/07 01:05:09;;;;;;;7.78;3.88;;;4.00;99.90;;;;;;6123066;23;20014;-88
2021/05/07 01:07:36;;;;;;;7.80;3.58;;;4.00;99.90;;;;;;6147763;23;20075;-88
2021/05/07 01:10:07;;;;;;;7.15;3.42;;;4.00;99.90;;;;;;6099694;23;20093;-88
2021/05/07 01:12:38;;;;;;;9.55;3.67;;;4.00;99.90;;;;;;6148199;23;20024;-88
2021/05/07 01:15:11;;;;;;;9.45;3.50;;;4.00;99.90;;;;;;6098934;23;20444;-88
2021/05/07 01:17:58;;;;;;;5.05;2.60;;;3.90;99.90;;;;;;6147675;23;20020;-88
2021/05/07 01:20:29;;;;;;;6.95;3.22;;;3.90;99.90;;;;;;6145301;23;20052;-88
2021/05/07 01:22:57;;;;;;;4.93;2.67;;;3.90;99.90;;;;;;6147241;23;20021;-87
2021/05/07 01:25:47;;;;;;;19.10;5.25;;;3.90;99.90;;;;;;6146690;23;20017;-88
2021/05/07 01:28:14;;;;;;;40.50;7.97;;;3.90;99.90;;;;;;6117481;23;20017;-88
2021/05/07 01:30:45;;;;;;;14.88;3.67;;;3.90;99.90;;;;;;6097046;23;20045;-88
2021/05/07 01:33:13;;;;;;;59.17;10.00;;;3.90;99.90;;;;;;6124168;23;20014;-88
2021/05/07 01:35:42;;;;;;;46.88;7.55;;;3.90;99.90;;;;;;6124852;23;20081;-86
2021/05/07 01:38:11;;;;;;;105.57;16.58;;;3.90;99.90;;;;;;6099081;23;20092;-87
2021/05/07 01:40:40;;;;;;;89.35;12.18;;;3.90;99.90;;;;;;6123936;23;20451;-87
2021/05/07 01:43:06;;;;;;;124.72;15.48;;;3.90;99.90;;;;;;6098848;23;20092;-87
2021/05/07 01:45:33;;;;;;;62.78;8.00;;;3.90;99.90;;;;;;6124565;23;20065;-88
2021/05/07 01:48:00;;;;;;;33.05;6.22;;;3.90;99.90;;;;;;6125026;23;20080;-88
2021/05/07 01:50:28;;;;;;;247.20;25.60;;;3.80;99.90;;;;;;6096975;23;20120;-87
2021/05/07 01:52:55;;;;;;;23.70;4.97;;;3.70;99.90;;;;;;6124621;23;20020;-88
2021/05/07 01:55:27;;;;;;;93.55;11.35;;;3.70;99.90;;;;;;6122522;23;20097;-88
2021/05/07 01:57:53;;;;;;;396.77;37.17;;;3.70;99.90;;;;;;6147509;23;20014;-88
2021/05/07 02:00:22;;;;;;;251.90;23.27;;;3.60;99.90;;;;;;6146274;23;20456;-87
2021/05/07 02:02:48;;;;;;;224.60;19.58;;;3.60;99.90;;;;;;6147687;23;20010;-87
2021/05/07 02:05:15;;;;;;;292.15;27.65;;;3.50;99.90;;;;;;6147552;23;20120;-88
2021/05/07 02:07:48;;;;;;;349.40;30.20;;;3.40;99.90;;;;;;6148313;23;20404;-88
2021/05/07 02:10:17;;;;;;;10.13;3.50;;;3.40;99.90;;;;;;6146926;23;20014;-86
2021/05/07 02:12:43;;;;;;;219.13;22.45;;;3.40;99.90;;;;;;6124191;23;20048;-88
2021/05/07 02:15:12;;;;;;;668.83;56.38;;;3.30;99.90;;;;;;6123714;23;20014;-88
2021/05/07 02:17:38;;;;;;;101.55;13.20;;;3.30;99.90;;;;;;6148207;23;20016;-87
2021/05/07 02:20:05;;;;;;;10.32;3.97;;;3.30;99.90;;;;;;6122516;23;20112;-88
2021/05/07 02:22:32;;;;;;;100.07;13.25;;;3.30;99.90;;;;;;6147102;23;20014;-88
2021/05/07 02:24:58;;;;;;;140.70;16.38;;;3.30;99.90;;;;;;6147228;23;20010;-87
2021/05/07 02:27:24;;;;;;;85.95;13.07;;;3.20;99.90;;;;;;6147470;23;20014;-88
2021/05/07 02:29:49;;;;;;;338.23;37.28;;;3.20;99.90;;;;;;6123744;23;20020;-88
2021/05/07 02:32:15;;;;;;;397.63;38.92;;;3.20;99.90;;;;;;6145967;23;20042;-87
2021/05/07 02:34:41;;;;;;;301.48;26.00;;;3.20;99.90;;;;;;6146512;23;20336;-88
2021/05/07 02:37:08;;;;;;;412.65;43.03;;;3.30;99.90;;;;;;6146733;23;20009;-88
2021/05/07 02:39:34;;;;;;;57.60;7.70;;;3.20;99.90;;;;;;6147151;23;20014;-86
2021/05/07 02:41:59;;;;;;;277.15;26.88;;;3.20;99.90;;;;;;6097213;23;20454;-88
2021/05/07 02:44:25;;;;;;;112.53;14.23;;;3.10;99.90;;;;;;6123691;23;20014;-87
2021/05/07 02:46:52;;;;;;;18.98;5.13;;;3.10;99.90;;;;;;6123547;23;20020;-86
2021/05/07 02:49:18;;;;;;;67.47;9.57;;;3.10;99.90;;;;;;6074128;23;20329;-88
2021/05/07 02:51:44;;;;;;;148.43;18.40;;;3.10;99.90;;;;;;6121154;23;20021;-88
2021/05/07 02:54:10;;;;;;;150.95;21.98;;;3.20;99.90;;;;;;6146546;23;20018;-87
2021/05/07 02:56:35;;;;;;;387.83;37.03;;;3.20;99.90;;;;;;6146597;23;20523;-88
2021/05/07 02:59:02;;;;;;;594.30;56.30;;;3.20;99.90;;;;;;6098394;23;20013;-88
2021/05/07 03:01:27;;;;;;;40.17;7.68;;;3.20;99.90;;;;;;6147076;23;20097;-88
2021/05/07 03:03:53;;;;;;;145.38;17.95;;;3.10;99.90;;;;;;6097522;23;20096;-88
2021/05/07 03:06:19;;;;;;;190.40;16.90;;;3.20;99.90;;;;;;6122487;23;20014;-88
2021/05/07 03:08:45;;;;;;;283.13;26.27;;;3.10;99.90;;;;;;6147085;23;20064;-88
2021/05/07 03:11:11;;;;;;;69.43;11.43;;;3.10;99.90;;;;;;6146459;23;20069;-88
2021/05/07 03:13:37;;;;;;;144.77;15.88;;;3.00;99.90;;;;;;6146445;23;20014;-87
2021/05/07 03:16:03;;;;;;;215.25;22.55;;;3.00;99.90;;;;;;6146095;23;20014;-88
2021/05/07 03:18:29;;;;;;;489.02;39.33;;;3.00;99.90;;;;;;6123948;23;20108;-87
2021/05/07 03:20:55;;;;;;;210.73;21.20;;;3.00;99.90;;;;;;6146168;23;20459;-88
2021/05/07 03:23:21;;;;;;;176.02;16.83;;;3.00;99.90;;;;;;6146703;23;20715;-87
2021/05/07 03:25:47;;;;;;;180.48;19.13;;;2.90;99.90;;;;;;6146346;23;20018;-87
2021/05/07 03:28:13;;;;;;;283.27;28.27;;;2.90;99.90;;;;;;6097250;23;20387;-87
2021/05/07 03:30:39;;;;;;;291.02;25.80;;;2.90;99.90;;;;;;6146331;23;20116;-88
2021/05/07 03:33:07;;;;;;;426.00;42.72;;;2.80;99.90;;;;;;6121706;23;20014;-88
2021/05/07 03:35:34;;;;;;;272.85;28.40;;;2.90;99.90;;;;;;6122206;23;20014;-88
2021/05/07 03:38:02;;;;;;;153.10;18.15;;;2.90;99.90;;;;;;6098199;23;20038;-87
2021/05/07 03:40:27;;;;;;;197.40;20.85;;;2.90;99.90;;;;;;6147371;23;20359;-87
2021/05/07 03:42:53;;;;;;;31.77;8.07;;;2.90;99.90;;;;;;6146737;23;20018;-87
2021/05/07 03:45:19;;;;;;;31.08;7.32;;;2.90;99.90;;;;;;6099103;23;20041;-87
2021/05/07 03:47:45;;;;;;;10.02;4.43;;;3.10;99.90;;;;;;6124024;23;20014;-86
2021/05/07 03:50:12;;;;;;;6.25;3.85;;;3.10;99.90;;;;;;6148579;23;20064;-87
2021/05/07 03:52:38;;;;;;;7.40;4.28;;;3.20;99.90;;;;;;6148892;23;20089;-87
2021/05/07 03:55:09;;;;;;;10.20;3.70;;;3.20;99.90;;;;;;6124827;23;20021;-87
2021/05/07 03:57:35;;;;;;;4.63;3.08;;;3.20;99.90;;;;;;6147770;23;20491;-86
2021/05/07 04:00:02;;;;;;;6.82;3.95;;;3.20;99.90;;;;;;6147826;23;20024;-86
2021/05/07 04:02:27;;;;;;;7.78;3.92;;;3.20;99.90;;;;;;6147419;23;20040;-87
2021/05/07 04:04:54;;;;;;;14.93;5.50;;;3.30;99.90;;;;;;6124156;23;20649;-87
2021/05/07 04:07:21;;;;;;;12.82;5.38;;;3.40;99.90;;;;;;6100382;23;20018;-87
2021/05/07 04:10:13;;;;;;;19.63;5.78;;;3.50;99.90;;;;;;6099563;23;20022;-87
2021/05/07 04:15:15;;;;;;;314.45;35.03;;;3.70;99.90;;;;;;6125407;23;20096;-87
2021/05/07 04:17:41;;;;;;;71.97;9.48;;;3.70;99.90;;;;;;6147767;23;20049;-87
2021/05/07 04:20:08;;;;;;;99.22;11.98;;;3.80;99.90;;;;;;6099050;23;20025;-87
2021/05/07 04:22:34;;;;;;;62.30;11.23;;;3.80;99.90;;;;;;6099035;23;20014;-87
2021/05/07 04:25:00;;;;;;;102.03;14.60;;;3.80;99.90;;;;;;6148647;23;20025;-88
2021/05/07 04:27:26;;;;;;;102.68;13.98;;;3.80;99.90;;;;;;6147212;23;20014;-87
2021/05/07 04:29:53;;;;;;;19.73;6.05;;;3.90;99.90;;;;;;6148280;23;20475;-87
2021/05/07 04:32:19;;;;;;;7.22;4.32;;;3.90;99.90;;;;;;6073855;23;20024;-87
2021/05/07 04:34:45;;;;;;;56.22;10.02;;;4.00;99.90;;;;;;6099335;23;20033;-87
2021/05/07 04:37:10;;;;;;;963.30;84.15;;;4.10;99.90;;;;;;6123137;23;20014;-87
2021/05/07 04:39:36;;;;;;;47.72;8.25;;;4.10;99.90;;;;;;6148053;23;20018;-87
2021/05/07 04:42:03;;;;;;;293.80;24.38;;;4.10;99.90;;;;;;6122683;23;20069;-87
2021/05/07 04:44:29;;;;;;;17.80;6.43;;;4.10;99.90;;;;;;6124127;23;20014;-87
2021/05/07 04:46:55;;;;;;;14.82;5.47;;;4.10;99.90;;;;;;6097354;23;20777;-87
2021/05/07 04:49:20;;;;;;;10.90;4.55;;;4.10;99.90;;;;;;6121632;23;20336;-88
2021/05/07 04:51:46;;;;;;;41.38;8.38;;;4.10;99.90;;;;;;6145394;23;20010;-87
2021/05/07 04:54:12;;;;;;;65.43;9.50;;;4.10;99.90;;;;;;6097132;23;20391;-88
2021/05/07 04:56:38;;;;;;;59.00;11.18;;;4.10;99.90;;;;;;6120833;23;20017;-87
2021/05/07 04:59:03;;;;;;;83.93;11.82;;;4.00;99.90;;;;;;6145436;23;20018;-86
2021/05/07 05:01:29;;;;;;;12.98;4.88;;;4.00;99.90;;;;;;6145558;23;20430;-87
2021/05/07 05:03:55;;;;;;;32.05;7.03;;;4.00;99.90;;;;;;6121675;23;20021;-87
2021/05/07 05:06:21;;;;;;;62.00;10.48;;;4.00;99.90;;;;;;6121385;23;20014;-86
2021/05/07 05:08:47;;;;;;;29.42;6.47;;;4.00;99.90;;;;;;6121269;23;20037;-87
2021/05/07 05:11:13;;;;;;;31.50;6.65;;;3.90;99.90;;;;;;6095744;23;20028;-87
2021/05/07 05:13:39;;;;;;;40.33;6.82;;;3.90;99.90;;;;;;6096179;23;20093;-87
2021/05/07 05:16:06;;;;;;;512.28;50.15;;;3.80;99.90;;;;;;6095983;23;20036;-87
2021/05/07 05:18:33;;;;;;;475.77;48.92;;;3.80;99.90;;;;;;6145069;23;20024;-87
2021/05/07 05:21:13;;;;;;;107.65;15.32;;;3.80;99.90;;;;;;6144984;23;20038;-87
2021/05/07 05:23:40;;;;;;;21.25;6.43;;;3.80;99.90;;;;;;6096316;23;20014;-87
2021/05/07 05:26:07;;;;;;;19.80;5.90;;;3.80;99.90;;;;;;6145216;23;20014;-87
2021/05/07 05:28:36;;;;;;;18.73;5.75;;;3.90;99.90;;;;;;6122172;23;20758;-87
2021/05/07 05:31:02;;;;;;;18.23;6.10;;;4.00;99.90;;;;;;6121926;23;20038;-87
2021/05/07 05:33:29;;;;;;;31.95;7.68;;;4.10;99.90;;;;;;6145679;23;20064;-87
2021/05/07 05:35:55;;;;;;;9.40;4.93;;;4.10;99.90;;;;;;6145966;23;20041;-86
2021/05/07 05:38:21;;;;;;;20.15;5.80;;;4.20;99.90;;;;;;6096978;23;20024;-87
2021/05/07 05:40:47;;;;;;;10.10;4.90;;;4.20;99.90;;;;;;6145054;23;20013;-86
2021/05/07 05:43:14;;;;;;;13.52;5.53;;;4.20;99.90;;;;;;6122572;23;20055;-87
2021/05/07 05:45:41;;;;;;;11.63;4.80;;;4.30;99.90;;;;;;6120050;23;597474;-87
2021/05/07 05:48:08;;;;;;;12.18;5.10;;;4.30;99.90;;;;;;6146372;23;20018;-87
2021/05/07 05:50:35;;;;;;;16.05;6.30;;;4.40;99.90;;;;;;6146483;23;20014;-87
2021/05/07 05:53:02;;;;;;;13.90;6.53;;;4.50;99.90;;;;;;6147619;23;20013;-87
2021/05/07 05:55:27;;;;;;;10.75;5.45;;;4.50;99.90;;;;;;6146845;23;20101;-87
2021/05/07 05:57:53;;;;;;;9.93;5.43;;;4.60;99.90;;;;;;6122214;23;20040;-87
2021/05/07 06:00:20;;;;;;;9.25;5.20;;;4.60;99.90;;;;;;6097062;23;20010;-86
2021/05/07 06:02:46;;;;;;;7.20;4.30;;;4.60;99.90;;;;;;6147983;23;20017;-87
2021/05/07 06:05:13;;;;;;;9.60;5.55;;;4.60;99.90;;;;;;6097787;23;20479;-87
2021/05/07 06:07:40;;;;;;;9.02;5.60;;;4.60;99.90;;;;;;6146913;23;20065;-87
2021/05/07 06:10:07;;;;;;;10.02;5.85;;;4.60;99.90;;;;;;6122276;23;20022;-87
2021/05/07 06:12:34;;;;;;;6.47;4.80;;;4.60;99.90;;;;;;6146081;23;20018;-86
2021/05/07 06:15:00;;;;;;;7.32;4.38;;;4.60;99.90;;;;;;6098029;23;20038;-87
2021/05/07 06:17:27;;;;;;;7.60;4.55;;;4.60;99.90;;;;;;6122875;23;20024;-87
2021/05/07 06:19:53;;;;;;;9.05;5.68;;;4.70;99.90;;;;;;6096804;23;20021;-86
2021/05/07 06:22:18;;;;;;;12.43;5.72;;;4.70;99.90;;;;;;6146149;23;20041;-88
2021/05/07 06:24:45;;;;;;;6.60;4.40;;;4.70;99.90;;;;;;6096891;23;20098;-87
2021/05/07 06:27:11;;;;;;;7.65;5.60;;;4.80;99.90;;;;;;6096942;23;20078;-87
2021/05/07 06:29:37;;;;;;;6.65;4.32;;;4.80;99.90;;;;;;6121975;23;20455;-87
2021/05/07 06:32:03;;;;;;;8.50;5.03;;;4.80;99.90;;;;;;6121240;23;20021;-87
2021/05/07 06:34:28;;;;;;;17.73;6.85;;;4.90;99.90;;;;;;6097580;23;20093;-87
2021/05/07 06:36:54;;;;;;;6.93;4.38;;;4.90;99.90;;;;;;6147323;23;20045;-87
2021/05/07 06:39:20;;;;;;;6.88;5.40;;;5.00;99.90;;;;;;6147032;23;20531;-87
2021/05/07 06:41:46;;;;;;;9.70;5.18;;;5.00;99.90;;;;;;6100383;23;20072;-87
2021/05/07 06:44:12;;;;;;;14.02;6.53;;;5.10;99.90;;;;;;6097486;23;20014;-87
2021/05/07 06:46:37;;;;;;;8.63;4.32;;;5.10;99.90;;;;;;6098119;23;20010;-87
2021/05/07 06:49:03;;;;;;;7.35;4.22;;;5.10;99.90;;;;;;6147301;23;20034;-87
2021/05/07 06:51:29;;;;;;;9.20;4.88;;;5.10;99.90;;;;;;6122348;23;20092;-88
2021/05/07 06:53:55;;;;;;;11.15;4.53;;;5.10;99.90;;;;;;6124290;23;20049;-86
2021/05/07 06:56:21;;;;;;;9.95;4.40;;;5.20;99.90;;;;;;6097989;23;20061;-87
2021/05/07 06:58:50;;;;;;;8.00;4.75;;;5.20;99.90;;;;;;6121709;23;20447;-87
2021/05/07 07:01:16;;;;;;;11.13;4.53;;;5.20;99.90;;;;;;6121761;23;20032;-87
2021/05/07 07:03:43;;;;;;;8.45;4.50;;;5.30;99.90;;;;;;6146758;23;20402;-87
2021/05/07 07:06:09;;;;;;;7.93;3.58;;;5.30;99.90;;;;;;6096524;23;20018;-87
2021/05/07 07:08:35;;;;;;;7.05;4.25;;;5.40;99.90;;;;;;6097087;23;20096;-86
2021/05/07 07:11:01;;;;;;;5.78;3.30;;;5.50;99.90;;;;;;6145319;23;20005;-87
2021/05/07 07:13:27;;;;;;;12.73;4.93;;;5.50;99.90;;;;;;6122457;23;20452;-87
2021/05/07 07:15:54;;;;;;;12.88;4.30;;;5.60;99.90;;;;;;6096986;23;20051;-86
2021/05/07 07:18:23;;;;;;;9.60;3.22;;;5.80;99.90;;;;;;6136833;23;20097;-86
2021/05/07 07:20:49;;;;;;;7.00;2.35;;;5.90;99.90;;;;;;6096182;23;20018;-87
2021/05/07 07:23:16;;;;;;;5.82;2.03;;;6.00;99.90;;;;;;6098128;23;20072;-87
2021/05/07 07:25:43;;;;;;;6.20;1.70;;;5.90;99.90;;;;;;6122421;23;20018;-87
2021/05/07 07:28:09;;;;;;;5.82;1.77;;;5.80;99.90;;;;;;6097267;23;20018;-87
2021/05/07 07:30:35;;;;;;;2.80;1.90;;;5.80;99.90;;;;;;6145142;23;20344;-88
2021/05/07 07:33:02;;;;;;;5.25;1.40;;;5.80;99.90;;;;;;6096098;23;20375;-87
2021/05/07 07:35:28;;;;;;;3.00;1.17;;;5.80;99.90;;;;;;6121057;23;20021;-87
2021/05/07 07:37:54;;;;;;;3.63;1.30;;;5.70;99.90;;;;;;6097268;23;20010;-87
2021/05/07 07:40:20;;;;;;;4.20;1.50;;;5.80;99.90;;;;;;6120405;23;20021;-87
2021/05/07 07:42:46;;;;;;;3.03;1.50;;;5.90;99.90;;;;;;6121222;23;20590;-87
2021/05/07 07:45:13;;;;;;;3.78;1.33;;;6.00;99.90;;;;;;6096600;23;20144;-88
2021/05/07 07:47:39;;;;;;;4.82;1.30;;;6.10;99.90;;;;;;6145191;23;20010;-87
2021/05/07 07:50:07;;;;;;;5.15;2.10;;;6.10;99.90;;;;;;6120704;23;20026;-87
2021/05/07 07:52:33;;;;;;;2.70;1.30;;;6.10;99.90;;;;;;6145857;23;20014;-87
2021/05/07 07:55:00;;;;;;;4.57;1.77;;;6.00;99.90;;;;;;6096976;23;20018;-88
2021/05/07 07:57:26;;;;;;;6.13;1.90;;;6.00;99.90;;;;;;6122013;23;20018;-87
2021/05/07 07:59:52;;;;;;;4.07;1.60;;;5.90;99.90;;;;;;6146928;23;20061;-87
2021/05/07 08:02:18;;;;;;;3.55;1.10;;;6.00;99.90;;;;;;6144642;23;20044;-87
2021/05/07 08:04:44;;;;;;;3.45;1.00;;;6.10;99.90;;;;;;6097577;23;20014;-87
2021/05/07 08:07:12;;;;;;;5.30;1.40;;;6.20;99.90;;;;;;6121513;23;20014;-88
2021/05/07 08:09:38;;;;;;;5.38;1.52;;;6.40;99.90;;;;;;6096800;23;20017;-88
2021/05/07 08:12:05;;;;;;;1.98;1.05;;;6.50;99.90;;;;;;6122085;23;20456;-87
2021/05/07 08:14:31;;;;;;;3.20;1.10;;;6.40;99.90;;;;;;6122766;23;20022;-88
2021/05/07 08:16:57;;;;;;;2.85;1.20;;;6.30;99.90;;;;;;6144688;23;20018;-87
2021/05/07 08:19:23;;;;;;;4.60;1.30;;;6.20;99.90;;;;;;6146296;23;20065;-88
2021/05/07 08:21:49;;;;;;;2.20;0.70;;;6.30;99.90;;;;;;6119856;23;20610;-86
2021/05/07 08:24:15;;;;;;;2.17;0.88;;;6.40;99.90;;;;;;6145445;23;20028;-87
2021/05/07 08:26:41;;;;;;;3.83;0.95;;;6.40;99.90;;;;;;6169960;23;20053;-87
2021/05/07 08:29:07;;;;;;;3.67;0.88;;;6.60;99.90;;;;;;6096462;23;20014;-87
2021/05/07 08:31:32;;;;;;;2.50;1.17;;;6.70;99.90;;;;;;6122159;23;20017;-87
2021/05/07 08:33:58;;;;;;;4.35;1.95;;;6.70;99.90;;;;;;6097594;23;20018;-87
2021/05/07 08:36:25;;;;;;;4.60;1.20;;;6.60;99.90;;;;;;6124411;23;20014;-87
2021/05/07 08:38:51;;;;;;;1.67;0.70;;;6.70;99.90;;;;;;6073997;23;20355;-86
2021/05/07 08:41:17;;;;;;;1.25;0.68;;;6.70;99.90;;;;;;6122888;23;20114;-86
2021/05/07 08:43:43;;;;;;;2.33;0.70;;;6.60;99.90;;;;;;6147261;23;20030;-87
2021/05/07 08:46:09;;;;;;;2.42;0.68;;;6.80;99.90;;;;;;6097810;23;20018;-87
2021/05/07 08:48:38;;;;;;;2.00;0.70;;;6.90;99.90;;;;;;6120565;23;20069;-87
2021/05/07 08:51:04;;;;;;;2.10;0.80;;;7.00;99.90;;;;;;6145977;23;20101;-87
2021/05/07 08:53:31;;;;;;;2.42;0.85;;;6.90;99.90;;;;;;6121179;23;20049;-87
2021/05/07 08:56:01;;;;;;;1.27;0.55;;;6.80;99.90;;;;;;6146907;23;20017;-86
2021/05/07 08:58:26;;;;;;;3.45;1.63;;;6.70;99.90;;;;;;6095470;23;20014;-87
2021/05/07 09:00:53;;;;;;;4.40;0.90;;;6.80;99.90;;;;;;6146685;23;20021;-87
2021/05/07 09:03:19;;;;;;;2.20;0.63;;;7.00;99.90;;;;;;6146594;23;20046;-87
2021/05/07 09:05:45;;;;;;;1.85;0.55;;;7.00;99.90;;;;;;6146109;23;20034;-86
2021/05/07 09:08:10;;;;;;;2.17;0.50;;;7.20;99.90;;;;;;6121731;23;20017;-86
2021/05/07 09:10:39;;;;;;;1.98;0.75;;;7.20;99.90;;;;;;6144166;23;20016;-87
2021/05/07 09:13:08;;;;;;;1.20;0.70;;;7.10;99.90;;;;;;6139296;23;20067;-87
2021/05/07 09:16:05;;;;;;;4.18;0.82;;;7.00;99.90;;;;;;6147315;23;20025;-87
2021/05/07 09:18:45;;;;;;;1.65;0.60;;;7.20;99.90;;;;;;6108891;23;20014;-87
2021/05/07 09:21:15;;;;;;;2.40;0.57;;;7.40;99.90;;;;;;6123283;23;20018;-87
2021/05/07 09:23:42;;;;;;;3.80;1.00;;;7.50;99.90;;;;;;6124473;23;20021;-88
2021/05/07 09:26:09;;;;;;;2.60;0.75;;;7.30;99.90;;;;;;6123346;23;20014;-87
2021/05/07 09:28:35;;;;;;;3.38;0.70;;;7.40;99.90;;;;;;6147727;23;20021;-87
2021/05/07 09:31:12;;;;;;;1.58;0.70;;;7.40;99.90;;;;;;6121189;23;20037;-87
2021/05/07 09:33:48;;;;;;;1.42;0.50;;;7.40;99.90;;;;;;6097568;23;20029;-87
2021/05/07 09:36:29;;;;;;;3.78;0.60;;;7.50;99.90;;;;;;6172262;23;20401;-87
2021/05/07 09:38:59;;;;;;;2.60;0.70;;;7.60;99.90;;;;;;6090986;23;20530;-87
2021/05/07 09:41:25;;;;;;;2.78;0.70;;;7.70;99.90;;;;;;6145287;23;20144;-87
2021/05/07 09:43:51;;;;;;;1.17;0.45;;;7.60;99.90;;;;;;6123794;23;20084;-87
2021/05/07 09:46:17;;;;;;;2.13;0.85;;;7.50;99.90;;;;;;6121768;23;20535;-87
2021/05/07 09:48:43;;;;;;;1.75;0.57;;;7.70;99.90;;;;;;6145786;23;20017;-86
2021/05/07 09:51:12;;;;;;;2.60;0.68;;;7.80;99.90;;;;;;6096874;23;20045;-87
2021/05/07 09:53:40;;;;;;;4.25;1.05;;;7.80;99.90;;;;;;6121601;23;20072;-87
2021/05/07 09:56:19;;;;;;;2.20;0.85;;;7.70;99.90;;;;;;6145186;23;20018;-87
2021/05/07 09:58:45;;;;;;;3.78;0.90;;;7.80;99.90;;;;;;6145576;23;20524;-87
2021/05/07 10:01:11;;;;;;;0.93;0.30;;;7.80;99.90;;;;;;6096713;23;20014;-87
2021/05/07 10:03:37;;;;;;;2.90;0.80;;;8.00;99.90;;;;;;6096355;23;20018;-87
2021/05/07 10:06:04;;;;;;;5.88;0.50;;;7.90;99.90;;;;;;6171607;23;20018;-87
2021/05/07 10:08:42;;;;;;;1.38;0.70;;;8.00;99.90;;;;;;6171231;23;20056;-87
2021/05/07 10:11:08;;;;;;;2.03;0.82;;;8.20;99.90;;;;;;6122090;23;20014;-87
2021/05/07 10:13:35;;;;;;;2.28;0.70;;;8.30;99.90;;;;;;6121330;23;20049;-86
2021/05/07 10:16:03;;;;;;;1.67;0.80;;;8.20;99.90;;;;;;6122033;23;20421;-87
2021/05/07 10:18:32;;;;;;;2.33;0.60;;;8.30;99.90;;;;;;6171663;23;20472;-88
2021/05/07 10:21:04;;;;;;;1.67;0.77;;;8.40;99.90;;;;;;6120814;23;20097;-87
2021/05/07 10:23:31;;;;;;;4.72;0.70;;;8.60;99.90;;;;;;6123765;23;20460;-88
2021/05/07 10:26:09;;;;;;;2.17;0.70;;;8.80;99.90;;;;;;6121812;23;20017;-87
2021/05/07 10:28:48;;;;;;;1.42;0.63;;;8.50;99.90;;;;;;6123630;23;20014;-88
2021/05/07 10:31:15;;;;;;;3.63;0.57;;;8.50;99.90;;;;;;6169458;23;20088;-88
2021/05/07 10:34:06;;;;;;;2.10;0.93;;;8.60;99.90;;;;;;6120573;23;20018;-88
2021/05/07 10:36:43;;;;;;;2.50;0.60;;;8.80;99.90;;;;;;6161259;23;20025;-87
2021/05/07 10:39:25;;;;;;;2.50;0.50;;;9.00;99.90;;;;;;6168748;23;20018;-88
2021/05/07 10:41:52;;;;;;;3.47;0.70;;;9.20;99.90;;;;;;6122086;23;20058;-87
2021/05/07 10:44:22;;;;;;;2.97;0.50;;;9.20;99.90;;;;;;6170869;23;20018;-88
2021/05/07 10:47:09;;;;;;;4.55;0.70;;;9.20;99.00;;;;;;6120585;23;20020;-87
2021/05/07 10:49:42;;;;;;;2.63;0.90;;;9.10;97.40;;;;;;6144819;23;20080;-88
2021/05/07 10:52:09;;;;;;;7.15;1.33;;;9.10;99.90;;;;;;6121204;23;20462;-86
2021/05/07 10:54:41;;;;;;;1.95;0.50;;;9.20;99.90;;;;;;6121372;23;20025;-88
2021/05/07 10:57:23;;;;;;;3.13;0.80;;;9.40;99.90;;;;;;6169346;23;20010;-87
2021/05/07 11:00:03;;;;;;;2.08;0.80;;;9.60;99.90;;;;;;6170311;23;20404;-87
2021/05/07 11:02:41;;;;;;;2.78;1.00;;;9.40;97.80;;;;;;6120528;23;20436;-86
2021/05/07 11:05:08;;;;;;;1.90;0.60;;;9.40;99.50;;;;;;6169122;23;20033;-85
2021/05/07 11:07:34;;;;;;;1.67;0.60;;;9.50;99.50;;;;;;6093343;23;20463;-85
2021/05/07 11:10:05;;;;;;;1.77;0.85;;;9.60;99.90;;;;;;6139597;23;20740;-86
2021/05/07 11:12:32;;;;;;;4.30;0.70;;;9.50;99.60;;;;;;6118509;23;20456;-85
2021/05/07 11:14:57;;;;;;;2.70;0.93;;;9.50;99.90;;;;;;6163388;23;20018;-87
2021/05/07 11:17:24;;;;;;;1.90;0.77;;;9.40;99.20;;;;;;6095299;23;20061;-85
2021/05/07 11:19:50;;;;;;;3.47;0.90;;;9.40;99.90;;;;;;6073161;23;20340;-86
2021/05/07 11:22:16;;;;;;;4.90;0.95;;;9.40;97.80;;;;;;6120723;23;20009;-87
2021/05/07 11:24:43;;;;;;;3.38;1.40;;;9.20;97.00;;;;;;6117868;23;20041;-87
2021/05/07 11:27:24;;;;;;;1.77;0.80;;;9.20;99.70;;;;;;6120428;23;20010;-87
2021/05/07 11:29:51;;;;;;;5.82;0.90;;;9.30;99.70;;;;;;6064188;23;20018;-86
2021/05/07 11:32:23;;;;;;;3.65;1.13;;;9.40;99.90;;;;;;6114790;23;20076;-86
2021/05/07 11:34:51;;;;;;;1.23;0.70;;;9.50;99.80;;;;;;6138450;23;20041;-86
2021/05/07 11:37:17;;;;;;;2.90;0.90;;;9.80;99.90;;;;;;6115801;23;20016;-86
2021/05/07 11:39:53;;;;;;;3.72;1.17;;;10.00;99.90;;;;;;6139592;23;20046;-87
2021/05/07 11:42:42;;;;;;;4.05;1.30;;;10.10;99.90;;;;;;6142401;23;20037;-87
2021/05/07 11:45:10;;;;;;;4.95;1.08;;;10.10;99.90;;;;;;6170408;23;20018;-86
2021/05/07 11:47:38;;;;;;;4.00;1.10;;;10.10;99.90;;;;;;6145124;23;20041;-86
2021/05/07 11:50:06;;;;;;;3.45;1.27;;;10.20;99.90;;;;;;6144603;23;20101;-86
2021/05/07 11:52:43;;;;;;;1.92;1.08;;;10.30;99.90;;;;;;6170040;23;20013;-86
2021/05/07 11:55:23;;;;;;;2.47;1.33;;;10.40;99.90;;;;;;6169867;23;20018;-87
2021/05/07 11:58:08;;;;;;;2.60;1.02;;;10.40;99.90;;;;;;6170718;23;20455;-87
2021/05/07 12:00:39;;;;;;;3.00;1.30;;;10.30;99.90;;;;;;6169369;23;20088;-86
2021/05/07 12:03:15;;;;;;;2.20;1.00;;;10.10;99.90;;;;;;6170170;23;20010;-86
2021/05/07 12:05:45;;;;;;;4.22;1.45;;;10.00;99.90;;;;;;6172544;23;20048;-87
2021/05/07 12:08:12;;;;;;;1.88;1.20;;;10.00;99.90;;;;;;6099065;23;20056;-87
2021/05/07 12:10:41;;;;;;;5.15;1.40;;;10.10;99.90;;;;;;6122905;23;20018;-87
2021/05/07 12:13:09;;;;;;;3.92;1.50;;;10.30;99.90;;;;;;6124065;23;20020;-85
2021/05/07 12:15:47;;;;;;;2.47;1.45;;;10.50;99.90;;;;;;6172847;23;20460;-88
2021/05/07 12:18:24;;;;;;;3.85;1.60;;;10.50;99.90;;;;;;6124566;23;20018;-87
2021/05/07 12:20:56;;;;;;;2.50;1.70;;;10.50;99.70;;;;;;6122079;23;20072;-86
2021/05/07 12:23:38;;;;;;;5.28;1.80;;;10.50;99.90;;;;;;6098374;23;20018;-86
2021/05/07 12:26:04;;;;;;;7.10;1.80;;;10.60;98.50;;;;;;6150739;23;20014;-86
2021/05/07 12:28:30;;;;;;;6.80;1.55;;;10.70;99.50;;;;;;6122046;23;20246;-87
2021/05/07 12:30:57;;;;;;;3.10;1.20;;;10.90;99.90;;;;;;6146213;23;20018;-87
2021/05/07 12:33:27;;;;;;;3.38;1.33;;;11.10;98.60;;;;;;6123746;23;21015;-87
2021/05/07 12:35:58;;;;;;;3.15;1.60;;;11.10;99.10;;;;;;6099690;23;20456;-87
2021/05/07 12:38:30;;;;;;;4.25;1.70;;;11.00;99.90;;;;;;6171863;23;20149;-87
2021/05/07 12:41:08;;;;;;;4.93;1.50;;;10.80;99.20;;;;;;6124646;23;20024;-87
2021/05/07 12:43:50;;;;;;;8.23;1.35;;;10.70;99.60;;;;;;6173193;23;20471;-87
2021/05/07 12:46:17;;;;;;;5.05;1.30;;;10.60;98.80;;;;;;6125054;23;20014;-87
2021/05/07 12:48:50;;;;;;;4.72;1.23;;;10.60;99.20;;;;;;6177647;23;20037;-86
2021/05/07 12:51:18;;;;;;;5.72;1.52;;;10.60;99.20;;;;;;6103367;23;20018;-85
2021/05/07 12:53:44;;;;;;;3.47;0.82;;;10.50;99.40;;;;;;6102870;23;20530;-86
2021/05/07 12:56:14;;;;;;;3.05;1.00;;;10.40;99.90;;;;;;6127402;23;20010;-86